Time;durP1;ratioP1;P1;durP2;ratioP2;P2;SDS_P1;SDS_P2;PMS_P1;PMS_P2;Temp;Humidity;BMP_temperature;BMP_pressure;BME280_temperature;BME280_humidity;BME280_pressure;Samples;Min_cycle;Max_cycle;Signal;HPM_P1;HPM_P2
2023/12/12 00:00:53;;;;;;;8.13;3.83;;;;;;;14.36;50.47;98227.97;8361066;23;20233;-80
2023/12/12 00:04:15;;;;;;;8.07;4.03;;;;;;;14.77;49.44;98222.22;8363727;23;20213;-77
2023/12/12 00:07:38;;;;;;;7.73;3.30;;;;;;;14.97;48.13;98222.53;8363562;23;20228;-77
2023/12/12 00:10:59;;;;;;;6.90;3.60;;;;;;;14.47;49.34;98218.97;8361825;23;20336;-78
2023/12/12 00:14:21;;;;;;;11.27;3.47;;;;;;;14.66;48.60;98222.25;8361498;23;20624;-77
2023/12/12 00:17:42;;;;;;;6.03;2.90;;;;;;;14.99;47.63;98219.56;8361476;23;20190;-77
2023/12/12 00:21:04;;;;;;;5.27;2.90;;;;;;;14.72;48.31;98232.13;8362080;23;20281;-77
2023/12/12 00:24:27;;;;;;;9.20;3.00;;;;;;;13.84;50.72;98233.66;8362806;23;20217;-77
2023/12/12 00:27:49;;;;;;;6.07;2.73;;;;;;;14.41;49.66;98243.50;8362083;23;20305;-78
2023/12/12 00:31:10;;;;;;;5.40;2.50;;;;;;;14.04;50.55;98229.47;8361285;23;20699;-79
2023/12/12 00:34:32;;;;;;;9.50;3.20;;;;;;;14.05;50.97;98243.84;8361848;23;20871;-78
2023/12/12 00:37:53;;;;;;;7.57;2.90;;;;;;;13.64;51.69;98238.66;8361687;23;20217;-76
2023/12/12 00:41:16;;;;;;;4.90;2.73;;;;;;;14.09;51.02;98245.03;8361001;23;20233;-77
2023/12/12 00:44:38;;;;;;;7.23;3.00;;;;;;;14.32;50.64;98242.25;8361747;23;20213;-76
2023/12/12 00:47:59;;;;;;;5.00;2.80;;;;;;;14.17;51.16;98247.34;8361984;23;20312;-76
2023/12/12 00:51:21;;;;;;;14.10;2.83;;;;;;;14.46;50.14;98232.75;8361004;23;20809;-79
2023/12/12 00:54:42;;;;;;;7.97;3.23;;;;;;;14.45;50.24;98244.69;8361948;23;20268;-76
2023/12/12 00:58:05;;;;;;;9.63;2.90;;;;;;;14.18;50.88;98243.56;8363501;23;20717;-76
2023/12/12 01:01:27;;;;;;;9.53;3.00;;;;;;;14.44;50.60;98249.28;8363359;23;20634;-79
2023/12/12 01:04:48;;;;;;;4.70;2.27;;;;;;;14.40;50.57;98258.13;8363424;23;20228;-76
2023/12/12 01:08:10;;;;;;;5.97;2.30;;;;;;;13.62;52.22;98232.66;8363604;23;20182;-77
2023/12/12 01:11:31;;;;;;;4.90;2.80;;;;;;;13.04;53.98;98253.50;8362273;23;20233;-77
2023/12/12 01:14:58;;;;;;;7.27;3.50;;;;;;;13.09;54.97;98250.94;8362137;23;20283;-76
2023/12/12 01:18:19;;;;;;;4.50;2.40;;;;;;;13.49;53.37;98243.72;8363926;23;20170;-77
2023/12/12 01:21:41;;;;;;;12.27;3.50;;;;;;;14.13;51.81;98244.31;8363429;23;20643;-76
2023/12/12 01:25:03;;;;;;;6.70;2.73;;;;;;;13.88;52.02;98257.34;8363877;23;20275;-76
2023/12/12 01:28:24;;;;;;;6.20;2.80;;;;;;;14.23;51.45;98243.72;8362906;23;20242;-76
2023/12/12 01:31:47;;;;;;;9.50;3.10;;;;;;;13.58;52.15;98201.69;8363004;23;20239;-77
2023/12/12 01:35:09;;;;;;;4.50;2.60;;;;;;;13.91;52.39;98235.16;8363814;23;20344;-76
2023/12/12 01:38:31;;;;;;;6.67;2.80;;;;;;;14.24;51.48;98237.22;8372502;23;20267;-80
2023/12/12 01:41:52;;;;;;;4.97;2.43;;;;;;;13.97;51.67;98234.22;8373932;23;20218;-79
2023/12/12 01:45:14;;;;;;;8.43;2.80;;;;;;;13.79;52.55;98234.38;8373518;23;20255;-79
2023/12/12 01:48:37;;;;;;;5.50;3.03;;;;;;;13.79;52.75;98228.13;8372419;23;20293;-79
2023/12/12 01:51:58;;;;;;;6.83;2.87;;;;;;;13.31;54.38;98225.75;8372289;23;20295;-79
2023/12/12 01:55:20;;;;;;;4.37;2.93;;;;;;;13.36;54.51;98220.44;8372172;23;20227;-78
2023/12/12 01:58:44;;;;;;;9.17;3.17;;;;;;;13.96;53.02;98207.34;8372491;23;20232;-79
2023/12/12 02:02:06;;;;;;;4.60;2.57;;;;;;;13.79;53.41;98217.28;8372805;23;20206;-79
2023/12/12 02:05:29;;;;;;;5.07;2.73;;;;;;;14.25;52.07;98200.91;8366470;23;20260;-79
2023/12/12 02:08:51;;;;;;;4.80;2.40;;;;;;;13.95;52.76;98200.28;8368177;23;20217;-79
2023/12/12 02:12:12;;;;;;;5.47;2.73;;;;;;;14.16;52.79;98202.34;8379666;23;20278;-80
2023/12/12 02:15:34;;;;;;;5.07;2.90;;;;;;;14.49;51.79;98202.41;8369130;23;20249;-79
2023/12/12 02:18:55;;;;;;;4.30;2.30;;;;;;;14.45;51.29;98196.66;8368739;23;20288;-79
2023/12/12 02:22:18;;;;;;;7.50;2.90;;;;;;;14.41;51.58;98208.25;8370763;23;20502;-79
2023/12/12 02:25:40;;;;;;;4.57;2.47;;;;;;;14.11;52.53;98197.63;8369155;23;20244;-79
2023/12/12 02:29:02;;;;;;;6.47;2.50;;;;;;;12.91;55.97;98194.16;8366257;23;20316;-79
2023/12/12 02:32:23;;;;;;;5.97;2.60;;;;;;;13.04;56.17;98183.94;8368802;23;20239;-79
2023/12/12 02:35:44;;;;;;;5.47;2.90;;;;;;;13.70;54.71;98173.50;8384537;23;20218;-79
2023/12/12 02:39:10;;;;;;;2.70;2.40;;;;;;;14.08;53.52;98179.13;8374197;23;20206;-77
2023/12/12 02:42:32;;;;;;;5.13;2.70;;;;;;;13.96;53.58;98163.97;8374611;23;20205;-79
2023/12/12 02:45:53;;;;;;;5.00;2.47;;;;;;;14.09;53.28;98183.50;8371315;23;20629;-79
2023/12/12 02:49:15;;;;;;;6.43;2.77;;;;;;;13.49;54.01;98193.09;8368910;23;20260;-79
2023/12/12 02:52:36;;;;;;;7.67;2.90;;;;;;;13.30;54.49;98197.03;8374562;23;20673;-78
2023/12/12 02:55:59;;;;;;;6.90;2.80;;;;;;;13.33;54.75;98190.31;8373847;23;20267;-79
2023/12/12 02:59:20;;;;;;;4.23;2.50;;;;;;;13.31;54.56;98149.94;8370579;23;20237;-79
2023/12/12 03:02:42;;;;;;;4.63;2.70;;;;;;;13.35;55.19;98185.47;8370787;23;20283;-79
2023/12/12 03:06:04;;;;;;;4.33;3.17;;;;;;;13.19;55.13;98192.44;8370165;23;20189;-77
2023/12/12 03:09:25;;;;;;;3.33;2.50;;;;;;;13.35;55.18;98185.47;8369663;23;20228;-79
2023/12/12 03:12:48;;;;;;;8.50;3.23;;;;;;;13.64;54.11;98196.13;8370674;23;20213;-79
2023/12/12 03:16:10;;;;;;;7.33;4.00;;;;;;;13.63;53.73;98167.38;8369430;23;20646;-78
2023/12/12 03:19:31;;;;;;;6.33;2.60;;;;;;;13.39;53.82;98186.66;8368175;23;20287;-79
2023/12/12 03:22:53;;;;;;;3.20;2.63;;;;;;;13.29;55.01;98202.66;8368260;23;20236;-79
2023/12/12 03:26:14;;;;;;;3.97;2.80;;;;;;;12.76;55.84;98193.81;8367804;23;20264;-78
2023/12/12 03:29:38;;;;;;;4.73;2.60;;;;;;;12.92;55.23;98187.69;8368409;23;20182;-79
2023/12/12 03:32:59;;;;;;;4.57;2.67;;;;;;;12.59;57.03;98161.22;8368020;23;20514;-79
2023/12/12 03:36:21;;;;;;;4.03;2.37;;;;;;;12.80;55.54;98166.03;8364383;23;20320;-78
2023/12/12 03:39:42;;;;;;;5.13;2.57;;;;;;;12.84;55.76;98158.28;8364556;23;20225;-79
2023/12/12 03:43:04;;;;;;;3.73;2.30;;;;;;;13.16;54.95;98165.81;8365060;23;20209;-79
2023/12/12 03:46:27;;;;;;;4.63;2.90;;;;;;;13.40;54.06;98164.72;8366465;23;20692;-79
2023/12/12 03:49:48;;;;;;;5.70;2.60;;;;;;;13.32;54.27;98161.56;8366743;23;20215;-79
2023/12/12 03:53:10;;;;;;;3.50;2.63;;;;;;;13.00;54.87;98158.44;8365810;23;20634;-79
2023/12/12 03:56:31;;;;;;;6.30;2.67;;;;;;;13.26;54.01;98157.94;8364869;23;20264;-78
2023/12/12 03:59:53;;;;;;;4.73;2.57;;;;;;;13.10;54.26;98147.03;8363405;23;20242;-78
2023/12/12 04:03:15;;;;;;;2.73;1.97;;;;;;;13.02;55.07;98153.59;8364650;23;20228;-79
2023/12/12 04:06:44;;;;;;;4.37;2.40;;;;;;;12.99;54.33;98139.72;8365148;23;20610;-79
2023/12/12 04:10:07;;;;;;;2.60;1.97;;;;;;;13.08;54.40;98120.19;8364358;23;20229;-79
2023/12/12 04:13:29;;;;;;;3.60;2.20;;;;;;;12.77;54.92;98135.94;8365154;23;20507;-79
2023/12/12 04:16:50;;;;;;;4.30;2.83;;;;;;;12.88;54.79;98133.25;8364599;23;20260;-79
2023/12/12 04:20:13;;;;;;;3.67;2.60;;;;;;;12.71;55.72;98135.00;8364351;23;20652;-79
2023/12/12 04:23:38;;;;;;;3.53;2.37;;;;;;;12.82;55.47;98136.06;8366779;23;20252;-79
2023/12/12 04:27:00;;;;;;;7.57;2.30;;;;;;;12.91;54.76;98112.97;8366976;23;20258;-78
2023/12/12 04:30:21;;;;;;;5.53;3.00;;;;;;;12.71;55.42;98116.06;8365339;23;20650;-80
2023/12/12 04:33:42;;;;;;;5.70;2.70;;;;;;;13.02;54.60;98117.59;8364886;23;20244;-79
2023/12/12 04:37:05;;;;;;;4.83;2.70;;;;;;;12.71;55.72;98107.97;8365542;23;20657;-78
2023/12/12 04:40:29;;;;;;;4.57;2.50;;;;;;;12.80;55.17;98109.22;8363366;23;20209;-79
2023/12/12 04:43:51;;;;;;;4.00;2.63;;;;;;;12.89;54.63;98118.66;8365231;23;20240;-79
2023/12/12 04:47:13;;;;;;;6.07;2.53;;;;;;;12.77;54.99;98125.94;8364686;23;20264;-79
2023/12/12 04:50:34;;;;;;;5.70;2.63;;;;;;;12.77;54.89;98119.69;8363652;23;20208;-79
2023/12/12 04:53:57;;;;;;;6.30;2.83;;;;;;;12.73;54.88;98113.94;8365709;23;20243;-78
2023/12/12 04:57:18;;;;;;;4.77;2.60;;;;;;;12.90;54.49;98117.59;8373224;23;20184;-77
2023/12/12 05:00:40;;;;;;;4.63;2.57;;;;;;;12.41;55.25;98118.06;8376964;23;20209;-79
2023/12/12 05:04:01;;;;;;;5.93;2.63;;;;;;;12.62;55.09;98113.97;8369732;23;20642;-79
2023/12/12 05:07:23;;;;;;;3.33;2.83;;;;;;;12.53;55.64;98102.66;8370960;23;20240;-79
2023/12/12 05:10:46;;;;;;;6.67;3.53;;;;;;;12.58;55.45;98101.94;8372169;23;20744;-78
2023/12/12 05:14:10;;;;;;;5.80;2.90;;;;;;;12.47;55.58;98100.06;8369170;23;20185;-79
2023/12/12 05:17:32;;;;;;;5.87;2.97;;;;;;;12.58;55.27;98107.34;8367696;23;20195;-79
2023/12/12 05:20:53;;;;;;;5.00;2.53;;;;;;;12.57;55.19;98100.31;8368114;23;20213;-79
2023/12/12 05:24:15;;;;;;;5.03;3.10;;;;;;;12.55;55.02;98110.50;8368067;23;20193;-78
2023/12/12 05:27:38;;;;;;;6.00;2.97;;;;;;;12.81;54.40;98102.75;8368205;23;20206;-78
2023/12/12 05:31:00;;;;;;;4.37;2.80;;;;;;;12.80;54.23;98103.00;8369169;23;20208;-79
2023/12/12 05:34:21;;;;;;;4.37;2.53;;;;;;;12.70;54.43;98114.41;8369878;23;20264;-78
2023/12/12 05:37:43;;;;;;;4.33;2.70;;;;;;;12.51;54.69;98122.88;8369209;23;20612;-78
2023/12/12 05:41:04;;;;;;;5.93;2.50;;;;;;;12.47;55.39;98124.41;8368845;23;20253;-79
2023/12/12 05:44:27;;;;;;;5.10;2.53;;;;;;;12.75;54.64;98109.13;8371202;23;20182;-79
2023/12/12 05:47:49;;;;;;;4.17;2.70;;;;;;;12.85;53.86;98103.09;8370794;23;20196;-79
2023/12/12 05:51:11;;;;;;;3.20;2.63;;;;;;;12.61;54.32;98099.59;8366736;23;20222;-79
2023/12/12 05:54:32;;;;;;;4.80;2.50;;;;;;;12.66;54.49;98044.78;8366673;23;20189;-79
2023/12/12 05:57:53;;;;;;;5.77;2.50;;;;;;;12.83;54.20;98079.03;8369305;23;20186;-78
2023/12/12 06:01:17;;;;;;;3.83;2.60;;;;;;;12.65;54.46;98084.56;8367233;23;20237;-78
2023/12/12 06:04:39;;;;;;;4.97;2.83;;;;;;;12.82;53.83;98077.38;8367407;23;20182;-78
2023/12/12 06:08:01;;;;;;;4.33;2.53;;;;;;;12.68;54.25;98103.00;8369281;23;20181;-78
2023/12/12 06:11:24;;;;;;;5.27;2.60;;;;;;;11.74;56.69;98099.53;8369470;23;20220;-78
2023/12/12 06:14:45;;;;;;;5.40;2.50;;;;;;;12.24;56.41;98100.88;8370212;23;20194;-79
2023/12/12 06:18:08;;;;;;;5.10;2.70;;;;;;;12.57;55.58;98103.00;8370154;23;20193;-79
2023/12/12 06:21:29;;;;;;;8.10;2.80;;;;;;;12.52;55.48;98101.00;8368709;23;20252;-79
2023/12/12 06:24:51;;;;;;;7.10;3.20;;;;;;;12.46;55.68;98106.53;8371476;23;20190;-78
2023/12/12 06:28:12;;;;;;;4.90;2.80;;;;;;;12.33;56.06;98101.34;8371269;23;20517;-79
2023/12/12 06:31:34;;;;;;;4.40;2.93;;;;;;;12.49;55.86;98063.63;8370317;23;20202;-79
2023/12/12 06:34:57;;;;;;;4.37;2.90;;;;;;;12.54;55.61;98098.91;8370046;23;20194;-79
2023/12/12 06:38:18;;;;;;;4.83;2.60;;;;;;;12.44;55.56;98100.50;8370662;23;20209;-77
2023/12/12 06:41:40;;;;;;;6.57;3.10;;;;;;;11.97;56.96;98112.28;8367618;23;20282;-79
2023/12/12 06:45:01;;;;;;;4.23;2.73;;;;;;;12.22;56.92;98097.56;8370980;23;20216;-79
2023/12/12 06:48:23;;;;;;;3.10;2.70;;;;;;;12.45;56.47;98081.38;8371135;23;20182;-77
2023/12/12 06:51:46;;;;;;;6.30;3.07;;;;;;;12.62;55.92;98070.69;8365137;23;20681;-78
2023/12/12 06:55:08;;;;;;;5.97;3.30;;;;;;;12.89;56.18;98063.72;8364458;23;20209;-77
2023/12/12 06:58:29;;;;;;;3.77;2.87;;;;;;;12.85;56.54;98059.81;8363402;23;20271;-77
2023/12/12 07:01:52;;;;;;;5.43;3.20;;;;;;;12.61;55.73;98056.34;8363497;23;20648;-77
2023/12/12 07:05:15;;;;;;;2.70;2.50;;;;;;;12.68;55.96;98051.63;8362505;23;20609;-77
2023/12/12 07:08:38;;;;;;;5.50;2.97;;;;;;;12.52;56.13;98076.66;8362648;23;20204;-77
2023/12/12 07:11:59;;;;;;;6.37;3.43;;;;;;;12.77;55.26;98050.22;8362740;23;20328;-78
2023/12/12 07:15:23;;;;;;;7.93;4.17;;;;;;;12.47;55.57;98054.09;8361821;23;20671;-78
2023/12/12 07:18:44;;;;;;;5.77;3.63;;;;;;;12.29;56.83;98052.34;8362243;23;20186;-76
2023/12/12 07:22:06;;;;;;;9.43;3.70;;;;;;;12.35;57.05;98056.81;8363219;23;20541;-76
2023/12/12 07:25:29;;;;;;;5.37;3.40;;;;;;;12.53;56.54;98055.88;8363146;23;20185;-76
2023/12/12 07:28:51;;;;;;;13.67;5.30;;;;;;;11.83;58.36;98057.66;8359848;23;20265;-77
2023/12/12 07:32:12;;;;;;;9.30;5.03;;;;;;;11.73;59.00;98072.75;8363233;23;20209;-76
2023/12/12 07:35:34;;;;;;;11.40;4.67;;;;;;;12.21;57.77;98076.19;8363259;23;20242;-76
2023/12/12 07:38:58;;;;;;;6.40;4.30;;;;;;;12.11;58.30;98079.44;8362392;23;20213;-77
2023/12/12 07:42:21;;;;;;;6.43;4.00;;;;;;;11.88;59.42;98083.97;8361408;23;20267;-77
2023/12/12 07:45:43;;;;;;;4.03;2.97;;;;;;;12.39;58.20;98073.38;8363209;23;20264;-76
2023/12/12 07:49:04;;;;;;;5.70;2.80;;;;;;;12.74;57.28;98063.38;8362551;23;20188;-77
2023/12/12 07:52:26;;;;;;;7.77;2.77;;;;;;;12.81;57.13;98054.06;8363043;23;20516;-78
2023/12/12 07:55:47;;;;;;;5.33;2.70;;;;;;;13.40;55.86;98045.59;8363013;23;20213;-77
2023/12/12 07:59:10;;;;;;;3.93;3.10;;;;;;;13.45;55.11;98061.13;8362540;23;20508;-77
2023/12/12 08:02:32;;;;;;;7.37;4.60;;;;;;;13.45;55.08;98051.13;8362916;23;20270;-77
2023/12/12 08:05:53;;;;;;;8.40;5.53;;;;;;;13.41;54.93;98070.78;8362498;23;20269;-76
2023/12/12 08:09:15;;;;;;;11.27;6.73;;;;;;;12.77;57.47;98062.91;8362523;23;20302;-76
2023/12/12 08:12:37;;;;;;;8.77;5.53;;;;;;;13.27;56.26;98059.41;8363037;23;20202;-78
2023/12/12 08:15:59;;;;;;;13.07;5.47;;;;;;;13.12;56.72;98066.41;8363277;23;20319;-78
2023/12/12 08:19:21;;;;;;;7.57;5.80;;;;;;;12.99;57.18;98042.31;8364739;23;20267;-80
2023/12/12 08:22:43;;;;;;;10.60;5.40;;;;;;;13.33;56.86;98036.00;8377150;23;20292;-79
2023/12/12 08:26:05;;;;;;;10.33;4.80;;;;;;;13.56;56.43;98028.56;8364143;23;20209;-75
2023/12/12 08:29:27;;;;;;;9.63;4.67;;;;;;;13.59;56.30;98014.56;8362632;23;20188;-77
2023/12/12 08:32:50;;;;;;;6.97;4.50;;;;;;;13.44;56.80;98026.97;8362723;23;20280;-76
2023/12/12 08:36:11;;;;;;;8.20;4.33;;;;;;;13.03;58.33;98013.69;8362679;23;20259;-76
2023/12/12 08:39:33;;;;;;;8.83;5.13;;;;;;;13.25;57.85;98001.16;8360664;23;20246;-78
2023/12/12 08:42:54;;;;;;;11.27;5.43;;;;;;;12.98;58.72;97983.88;8362518;23;20649;-76
2023/12/12 08:46:16;;;;;;;6.73;4.57;;;;;;;13.44;57.66;97980.94;8362347;23;20218;-77
2023/12/12 08:49:39;;;;;;;5.93;3.70;;;;;;;13.73;56.97;97967.13;8361451;23;20288;-78
2023/12/12 08:53:00;;;;;;;4.30;2.90;;;;;;;12.81;59.03;97966.69;8362211;23;20264;-76
2023/12/12 08:56:22;;;;;;;4.87;2.80;;;;;;;13.57;57.74;97962.50;8362679;23;20224;-76
2023/12/12 08:59:43;;;;;;;4.43;2.60;;;;;;;14.04;56.03;97944.88;8361949;23;20213;-78
2023/12/12 09:03:05;;;;;;;2.50;2.23;;;;;;;14.05;55.93;97954.63;8361802;23;20721;-76
2023/12/12 09:06:27;;;;;;;3.07;2.30;;;;;;;14.25;55.18;97965.00;8361083;23;20190;-77
2023/12/12 09:09:49;;;;;;;3.90;2.73;;;;;;;13.93;55.90;97962.03;8361177;23;20213;-79
2023/12/12 09:13:11;;;;;;;3.07;2.50;;;;;;;14.43;54.79;97962.84;8361135;23;20317;-78
2023/12/12 09:16:32;;;;;;;5.10;2.90;;;;;;;14.32;55.21;97971.91;8363204;23;20605;-78
2023/12/12 09:19:54;;;;;;;6.87;2.70;;;;;;;14.49;55.09;97967.28;8362678;23;20256;-78
2023/12/12 09:23:17;;;;;;;2.37;2.17;;;;;;;13.98;55.11;97907.13;8363859;23;20316;-77
2023/12/12 09:26:39;;;;;;;2.67;2.27;;;;;;;14.02;56.38;97952.44;8363612;23;20209;-78
2023/12/12 09:30:00;;;;;;;3.57;2.17;;;;;;;14.12;55.60;97939.06;8362938;23;20295;-78
2023/12/12 09:33:22;;;;;;;3.10;2.40;;;;;;;13.76;57.55;97955.78;8364302;23;20651;-79
2023/12/12 09:36:43;;;;;;;5.10;3.43;;;;;;;13.97;56.76;97944.22;8366031;23;20213;-78
2023/12/12 09:40:08;;;;;;;4.10;2.80;;;;;;;14.36;56.50;97931.56;8369674;23;20268;-79
2023/12/12 09:43:29;;;;;;;2.10;2.00;;;;;;;14.74;55.46;97917.97;8363861;23;20600;-78
2023/12/12 09:46:52;;;;;;;4.53;2.40;;;;;;;14.77;55.39;97922.88;8366671;23;20181;-79
2023/12/12 09:50:14;;;;;;;4.87;2.90;;;;;;;14.84;55.77;97918.91;8363264;23;20229;-78
2023/12/12 09:53:36;;;;;;;3.00;2.43;;;;;;;14.84;55.24;97885.50;8363708;23;20190;-77
2023/12/12 09:56:59;;;;;;;4.07;2.50;;;;;;;15.10;55.07;97901.81;8363723;23;20237;-78
2023/12/12 10:00:21;;;;;;;3.67;2.40;;;;;;;15.22;54.73;97897.03;8362845;23;20315;-78
2023/12/12 10:03:44;;;;;;;3.83;2.80;;;;;;;15.21;54.58;97889.97;8363819;23;20187;-78
2023/12/12 10:07:07;;;;;;;3.43;2.60;;;;;;;14.88;55.56;97867.66;8363776;23;20192;-77
2023/12/12 10:10:29;;;;;;;3.97;2.20;;;;;;;14.62;57.26;97880.09;8362073;23;20277;-77
2023/12/12 10:13:54;;;;;;;2.47;2.03;;;;;;;14.70;57.27;97874.22;8363749;23;20236;-78
2023/12/12 10:17:15;;;;;;;2.17;2.00;;;;;;;14.55;57.58;97881.34;8363822;23;20186;-78
2023/12/12 10:20:37;;;;;;;1.97;1.87;;;;;;;14.78;56.63;97851.25;8362353;23;20235;-78
2023/12/12 10:23:59;;;;;;;1.60;1.60;;;;;;;15.26;55.80;97871.03;8363683;23;20261;-78
2023/12/12 10:27:21;;;;;;;1.70;1.60;;;;;;;15.57;55.13;97858.56;8361619;23;20192;-78
2023/12/12 10:30:44;;;;;;;2.80;2.10;;;;;;;15.47;55.22;97863.91;8362850;23;20213;-78
2023/12/12 10:34:06;;;;;;;2.13;1.93;;;;;;;15.69;55.17;97834.75;8363314;23;20250;-77
2023/12/12 10:37:27;;;;;;;2.40;2.20;;;;;;;15.47;55.54;97818.56;8363488;23;20244;-77
2023/12/12 10:40:49;;;;;;;2.07;1.90;;;;;;;15.59;55.88;97845.53;8361846;23;20341;-79
2023/12/12 10:44:11;;;;;;;1.80;1.70;;;;;;;15.28;56.88;97839.00;8363489;23;20553;-78
2023/12/12 10:47:34;;;;;;;2.33;2.13;;;;;;;15.11;57.61;97804.91;8363256;23;20273;-78
2023/12/12 10:50:58;;;;;;;2.47;2.30;;;;;;;14.77;58.83;97817.88;8362596;23;20296;-77
2023/12/12 10:54:24;;;;;;;2.80;2.23;;;;;;;14.98;58.93;97813.47;8362450;23;20219;-80
2023/12/12 10:57:47;;;;;;;2.20;2.00;;;;;;;14.96;59.28;97811.00;8363495;23;20626;-77
2023/12/12 11:01:10;;;;;;;2.10;1.90;;;;;;;14.92;59.52;97815.31;8361904;23;20206;-79
2023/12/12 11:04:33;;;;;;;2.43;1.90;;;;;;;14.76;60.24;97799.94;8363206;23;20315;-78
2023/12/12 11:07:55;;;;;;;3.70;2.10;;;;;;;14.82;60.27;97779.13;8362704;23;20329;-79
2023/12/12 11:11:17;;;;;;;3.33;2.03;;;;;;;14.90;60.08;97778.63;8363822;23;20694;-79
2023/12/12 11:14:39;;;;;;;2.10;2.00;;;;;;;14.78;60.60;97769.84;8364289;23;20320;-79
2023/12/12 11:18:01;;;;;;;2.00;1.80;;;;;;;14.42;61.48;97754.28;8362196;23;20232;-78
2023/12/12 11:21:45;;;;;;;2.47;2.10;;;;;;;14.34;62.63;97744.69;8360342;23;20260;-78
2023/12/12 11:25:08;;;;;;;2.40;2.20;;;;;;;14.42;61.85;97722.56;8362844;23;20186;-79
2023/12/12 11:28:32;;;;;;;2.30;2.17;;;;;;;14.86;60.68;97715.91;8361890;23;20182;-78
2023/12/12 11:31:58;;;;;;;2.40;2.20;;;;;;;14.48;61.67;97726.13;8359471;23;20205;-79
2023/12/12 11:35:29;;;;;;;2.77;2.30;;;;;;;13.67;64.51;97718.09;8361885;23;20189;-78
2023/12/12 11:38:55;;;;;;;2.43;2.23;;;;;;;13.92;63.82;97710.31;8360386;23;20181;-78
2023/12/12 11:42:17;;;;;;;2.43;2.23;;;;;;;14.34;62.99;97689.66;8359789;23;20594;-79
2023/12/12 11:45:39;;;;;;;2.07;1.87;;;;;;;15.05;61.09;97700.06;8360607;23;20193;-78
2023/12/12 11:49:18;;;;;;;2.10;2.00;;;;;;;14.95;61.40;97692.66;8360684;23;20213;-78
2023/12/12 11:52:48;;;;;;;2.97;2.17;;;;;;;15.42;60.04;97671.03;8362563;23;20228;-78
2023/12/12 11:56:16;;;;;;;2.30;2.20;;;;;;;15.18;60.70;97677.91;8362598;23;20265;-78
2023/12/12 11:59:38;;;;;;;3.43;2.70;;;;;;;15.41;59.96;97662.06;8365084;23;20181;-77
2023/12/12 12:03:00;;;;;;;3.30;2.20;;;;;;;15.23;61.09;97661.66;8362419;23;20230;-79
2023/12/12 12:06:22;;;;;;;3.03;2.10;;;;;;;14.83;62.11;97651.31;8361038;23;20186;-78
2023/12/12 12:09:43;;;;;;;2.00;1.90;;;;;;;15.79;59.52;97664.41;8361811;23;20268;-79
2023/12/12 12:13:06;;;;;;;2.13;2.00;;;;;;;14.73;62.12;97647.69;8362509;23;20865;-80
2023/12/12 12:16:28;;;;;;;2.10;1.90;;;;;;;15.03;61.96;97646.03;8362085;23;20220;-78
2023/12/12 12:19:57;;;;;;;1.90;1.80;;;;;;;14.99;61.37;97642.19;8360279;23;20292;-78
2023/12/12 12:23:18;;;;;;;2.20;2.03;;;;;;;15.57;59.72;97643.94;8360946;23;20190;-77
2023/12/12 12:26:40;;;;;;;2.20;2.00;;;;;;;15.92;58.79;97630.50;8361770;23;20554;-78
2023/12/12 12:30:06;;;;;;;5.93;4.00;;;;;;;16.13;58.37;97613.97;8362353;23;20262;-78
2023/12/12 12:33:31;;;;;;;3.00;2.43;;;;;;;15.82;59.51;97612.22;8362920;23;20175;-78
2023/12/12 12:36:55;;;;;;;2.30;2.10;;;;;;;16.00;59.32;97617.22;8363296;23;20258;-77
2023/12/12 12:40:31;;;;;;;4.93;2.03;;;;;;;16.04;59.05;97607.41;8360296;23;20309;-78
2023/12/12 12:43:54;;;;;;;2.87;2.50;;;;;;;16.33;58.54;97610.47;8361595;23;20220;-78
2023/12/12 12:47:21;;;;;;;5.23;3.30;;;;;;;15.98;59.35;97575.84;8362132;23;20571;-78
2023/12/12 12:50:43;;;;;;;2.80;2.43;;;;;;;16.03;59.63;97569.59;8361091;23;20690;-77
2023/12/12 12:54:05;;;;;;;2.93;2.40;;;;;;;16.09;58.70;97546.78;8362431;23;20182;-77
2023/12/12 12:57:27;;;;;;;1.80;1.70;;;;;;;15.07;61.67;97565.72;8361629;23;20187;-80
2023/12/12 13:00:48;;;;;;;2.57;2.17;;;;;;;15.02;62.68;97575.72;8359918;23;20237;-76
2023/12/12 13:04:11;;;;;;;2.67;2.00;;;;;;;15.21;62.27;97580.44;8361739;23;20686;-77
2023/12/12 13:07:34;;;;;;;2.07;1.97;;;;;;;15.01;63.17;97588.50;8360678;23;20194;-78
2023/12/12 13:10:56;;;;;;;7.37;2.50;;;;;;;14.51;65.06;97601.69;8359254;23;20287;-77
2023/12/12 13:14:17;;;;;;;4.93;3.17;;;;;;;14.13;66.25;97614.59;8361698;23;20187;-78
2023/12/12 13:17:39;;;;;;;2.63;2.43;;;;;;;14.21;66.55;97598.72;8360814;23;20188;-76
2023/12/12 13:21:02;;;;;;;5.77;2.67;;;;;;;14.27;65.88;97603.09;8359953;23;20277;-78
2023/12/12 13:24:23;;;;;;;2.20;1.70;;;;;;;14.50;65.67;97600.06;8361523;23;20289;-77
2023/12/12 13:27:45;;;;;;;2.37;2.10;;;;;;;14.80;64.59;97592.13;8360639;23;20191;-75
2023/12/12 13:31:06;;;;;;;1.80;1.70;;;;;;;14.64;65.04;97595.00;8361109;23;20255;-75
2023/12/12 13:34:31;;;;;;;1.53;1.43;;;;;;;14.42;65.49;97576.13;8361347;23;20211;-75
2023/12/12 13:37:53;;;;;;;2.77;2.03;;;;;;;13.78;68.57;97616.91;8361033;23;20639;-76
2023/12/12 13:41:15;;;;;;;2.00;1.90;;;;;;;14.16;68.31;97614.88;8360399;23;20293;-76
2023/12/12 13:44:37;;;;;;;2.73;1.73;;;;;;;14.42;67.43;97608.69;8361346;23;20519;-76
2023/12/12 13:47:58;;;;;;;1.80;1.70;;;;;;;14.76;66.69;97623.56;8356159;23;20240;-77
2023/12/12 13:51:19;;;;;;;2.30;1.90;;;;;;;15.20;65.05;97638.53;8359129;23;20646;-75
2023/12/12 13:54:42;;;;;;;4.80;3.93;;;;;;;15.04;65.30;97630.56;8361623;23;20210;-75
2023/12/12 13:58:04;;;;;;;4.20;3.80;;;;;;;15.39;64.41;97617.25;8362043;23;20231;-78
2023/12/12 14:01:25;;;;;;;5.27;4.30;;;;;;;15.23;64.34;97561.97;8361046;23;20202;-75
2023/12/12 14:04:49;;;;;;;7.33;5.83;;;;;;;15.01;65.60;97564.06;8363770;23;20593;-75
2023/12/12 14:08:11;;;;;;;4.23;2.60;;;;;;;15.45;64.01;97543.66;8362018;23;20222;-76
2023/12/12 14:11:34;;;;;;;2.97;2.27;;;;;;;15.47;64.16;97540.66;8360883;23;20210;-75
2023/12/12 14:14:55;;;;;;;2.90;2.70;;;;;;;15.67;63.49;97521.69;8361202;23;20772;-76
2023/12/12 14:18:17;;;;;;;3.40;2.80;;;;;;;15.57;63.34;97533.34;8361664;23;20278;-77
2023/12/12 14:21:38;;;;;;;4.03;3.23;;;;;;;15.62;63.17;97540.72;8363762;23;20281;-77
2023/12/12 14:25:00;;;;;;;5.67;3.50;;;;;;;15.59;62.91;97528.50;8364555;23;20275;-77
2023/12/12 14:28:23;;;;;;;4.13;3.73;;;;;;;15.31;63.18;97525.34;8363843;23;20560;-77
2023/12/12 14:31:45;;;;;;;2.60;2.40;;;;;;;15.05;64.20;97524.44;8365032;23;20210;-76
2023/12/12 14:35:08;;;;;;;5.10;4.53;;;;;;;15.20;63.88;97529.13;8366774;23;20186;-79
2023/12/12 14:38:30;;;;;;;3.37;2.90;;;;;;;15.39;63.54;97538.47;8365100;23;20187;-78
2023/12/12 14:41:51;;;;;;;2.60;2.40;;;;;;;15.43;63.11;97534.97;8363258;23;20206;-79
2023/12/12 14:45:14;;;;;;;2.70;2.40;;;;;;;15.23;63.50;97534.81;8363413;23;20277;-79
2023/12/12 14:48:36;;;;;;;2.37;2.13;;;;;;;15.38;62.83;97515.91;8361723;23;20194;-77
2023/12/12 14:51:58;;;;;;;2.50;2.30;;;;;;;15.55;62.47;97515.69;8363470;23;20272;-77
2023/12/12 14:55:21;;;;;;;3.07;2.13;;;;;;;15.43;62.32;97502.38;8362381;23;20188;-78
2023/12/12 14:58:42;;;;;;;2.30;2.10;;;;;;;15.36;62.49;97512.66;8362947;23;20182;-79
2023/12/12 15:02:05;;;;;;;2.23;2.03;;;;;;;15.03;63.82;97517.63;8363842;23;20297;-78
2023/12/12 15:05:27;;;;;;;2.03;1.90;;;;;;;15.36;62.84;97512.66;8362743;23;20620;-79
2023/12/12 15:08:48;;;;;;;1.80;1.70;;;;;;;15.44;62.58;97497.72;8362507;23;20217;-79
2023/12/12 15:12:10;;;;;;;2.97;1.70;;;;;;;15.74;61.25;97495.09;8362252;23;20241;-77
2023/12/12 15:15:31;;;;;;;1.70;1.60;;;;;;;15.41;61.98;97479.25;8362970;23;20260;-77
2023/12/12 15:18:54;;;;;;;1.80;1.70;;;;;;;15.61;61.79;97476.59;8361660;23;20459;-79
2023/12/12 15:22:16;;;;;;;1.30;1.30;;;;;;;15.67;61.44;97480.94;8360688;23;20654;-77
2023/12/12 15:25:38;;;;;;;1.90;1.77;;;;;;;15.52;61.87;97489.06;8364191;23;20643;-79
2023/12/12 15:29:00;;;;;;;2.00;1.90;;;;;;;15.32;61.88;97506.13;8363590;23;20205;-77
2023/12/12 15:32:22;;;;;;;1.80;1.70;;;;;;;14.80;64.38;97502.59;8362663;23;20240;-75
2023/12/12 15:35:45;;;;;;;2.50;2.30;;;;;;;14.66;64.85;97481.63;8362329;23;20252;-76
2023/12/12 15:39:06;;;;;;;2.97;2.53;;;;;;;14.40;65.98;97469.00;8361005;23;20618;-75
2023/12/12 15:42:28;;;;;;;1.67;1.50;;;;;;;14.73;65.15;97441.50;8361155;23;20217;-77
2023/12/12 15:45:49;;;;;;;1.73;1.63;;;;;;;15.18;63.09;97466.13;8363002;23;20185;-77
2023/12/12 15:49:11;;;;;;;3.60;2.00;;;;;;;14.82;64.37;97464.34;8360644;23;20217;-77
2023/12/12 15:52:34;;;;;;;1.80;1.70;;;;;;;14.98;63.65;97468.78;8361683;23;20201;-77